Time;durP1;ratioP1;P1;durP2;ratioP2;P2;SDS_P1;SDS_P2;PMS_P1;PMS_P2;Temp;Humidity;BMP_temperature;BMP_pressure;BME280_temperature;BME280_humidity;BME280_pressure;Samples;Min_cycle;Max_cycle;Signal;HPM_P1;HPM_P2
2021/03/03 00:02:25;;;;;;;48.63;22.27;;;9.00;99.90;;;;;;5074952;28;20205;-75
2021/03/03 00:04:51;;;;;;;59.33;24.27;;;9.00;99.90;;;;;;5074449;28;20209;-75
2021/03/03 00:07:17;;;;;;;53.83;23.87;;;9.00;99.90;;;;;;5073988;28;20199;-76
2021/03/03 00:09:44;;;;;;;52.13;23.47;;;9.00;99.90;;;;;;5074576;28;20225;-75
2021/03/03 00:12:10;;;;;;;51.50;23.57;;;9.00;99.90;;;;;;5074448;28;20628;-75
2021/03/03 00:14:37;;;;;;;51.90;23.93;;;9.00;99.90;;;;;;5074446;28;20266;-75
2021/03/03 00:17:04;;;;;;;57.07;24.63;;;8.80;99.90;;;;;;5074373;28;20681;-75
2021/03/03 00:19:31;;;;;;;56.67;23.87;;;8.80;99.90;;;;;;5074311;28;20207;-76
2021/03/03 00:21:57;;;;;;;53.77;23.00;;;8.80;99.90;;;;;;5074815;28;20577;-75
2021/03/03 00:24:23;;;;;;;51.97;22.27;;;8.70;99.90;;;;;;5074724;28;20227;-75
2021/03/03 00:26:50;;;;;;;47.10;22.57;;;8.70;99.90;;;;;;5074220;28;20202;-75
2021/03/03 00:29:16;;;;;;;51.73;23.13;;;8.70;99.90;;;;;;5073984;28;20261;-75
2021/03/03 00:31:43;;;;;;;50.80;23.83;;;8.60;99.90;;;;;;5074014;28;20268;-75
2021/03/03 00:34:10;;;;;;;48.93;23.43;;;8.70;99.90;;;;;;5073829;28;20662;-75
2021/03/03 00:36:36;;;;;;;51.70;23.47;;;8.60;99.90;;;;;;5074130;28;20253;-75
2021/03/03 00:39:03;;;;;;;54.00;23.97;;;8.60;99.90;;;;;;5073925;28;20601;-75
2021/03/03 00:41:30;;;;;;;52.83;22.57;;;8.60;99.90;;;;;;5073754;28;20205;-75
2021/03/03 00:43:56;;;;;;;51.80;23.43;;;8.60;99.90;;;;;;5073921;28;20197;-75
2021/03/03 00:46:22;;;;;;;52.70;22.63;;;8.60;99.90;;;;;;5073627;28;20238;-75
2021/03/03 00:48:49;;;;;;;50.33;23.20;;;8.60;99.90;;;;;;5073897;28;20225;-75
2021/03/03 00:51:17;;;;;;;49.07;22.23;;;8.60;99.90;;;;;;5073964;28;20208;-75
2021/03/03 00:53:45;;;;;;;45.73;22.67;;;8.60;99.90;;;;;;5073596;28;20205;-74
2021/03/03 00:56:11;;;;;;;50.20;22.97;;;8.60;99.90;;;;;;5073937;28;20211;-75
2021/03/03 00:58:38;;;;;;;52.80;21.67;;;8.60;99.90;;;;;;5073560;28;20194;-75
2021/03/03 01:01:05;;;;;;;46.77;23.47;;;8.60;99.90;;;;;;5073650;28;20204;-75
2021/03/03 01:03:31;;;;;;;53.87;21.87;;;8.60;99.90;;;;;;5073817;28;20282;-75
2021/03/03 01:05:57;;;;;;;46.70;22.00;;;8.60;99.90;;;;;;5073626;28;20200;-75
2021/03/03 01:08:24;;;;;;;50.67;22.33;;;8.60;99.90;;;;;;5073337;28;20762;-75
2021/03/03 01:10:51;;;;;;;47.70;23.43;;;8.60;99.90;;;;;;5073473;28;20661;-75
2021/03/03 01:13:17;;;;;;;51.23;23.37;;;8.60;99.90;;;;;;5073677;28;20731;-75
2021/03/03 01:15:43;;;;;;;46.40;22.33;;;8.60;99.90;;;;;;5073380;28;20217;-75
2021/03/03 01:18:10;;;;;;;49.07;23.10;;;8.50;99.90;;;;;;5072518;28;20211;-75
2021/03/03 01:20:36;;;;;;;48.17;22.27;;;8.50;99.90;;;;;;5073216;28;20209;-75
2021/03/03 01:23:03;;;;;;;54.77;23.27;;;8.50;99.90;;;;;;5073415;28;20205;-75
2021/03/03 01:25:30;;;;;;;45.57;21.97;;;8.60;99.90;;;;;;5073291;28;20259;-75
2021/03/03 01:27:56;;;;;;;52.93;24.00;;;8.50;99.90;;;;;;5073021;28;20220;-75
2021/03/03 01:30:23;;;;;;;45.07;21.67;;;8.60;99.90;;;;;;5073090;28;20247;-75
2021/03/03 01:32:49;;;;;;;49.13;22.50;;;8.60;99.90;;;;;;5073250;28;20306;-75
2021/03/03 01:35:16;;;;;;;41.33;22.47;;;8.60;99.90;;;;;;5073254;28;20223;-76
2021/03/03 01:37:42;;;;;;;51.33;23.20;;;8.70;99.90;;;;;;5073347;28;20247;-75
2021/03/03 01:40:09;;;;;;;47.10;21.17;;;8.80;99.90;;;;;;5073187;28;20208;-75
2021/03/03 01:42:36;;;;;;;49.03;22.70;;;8.90;99.90;;;;;;5073095;28;20662;-75
2021/03/03 01:45:04;;;;;;;47.37;21.53;;;9.00;99.90;;;;;;5072888;28;20670;-75
2021/03/03 01:47:30;;;;;;;45.43;21.43;;;9.10;99.90;;;;;;5073096;28;20207;-75
2021/03/03 01:49:57;;;;;;;56.07;22.87;;;9.20;99.90;;;;;;5072812;28;20319;-75
2021/03/03 01:52:24;;;;;;;51.77;22.83;;;9.30;99.90;;;;;;5073026;28;20197;-75
2021/03/03 01:54:50;;;;;;;45.53;22.30;;;9.30;99.90;;;;;;5073280;28;20224;-75
2021/03/03 01:57:17;;;;;;;45.20;22.10;;;9.30;99.90;;;;;;5072925;28;20579;-75
2021/03/03 01:59:44;;;;;;;43.27;21.77;;;9.50;99.90;;;;;;5073201;28;20198;-75
2021/03/03 02:02:10;;;;;;;51.60;21.87;;;9.40;99.90;;;;;;5073108;28;20250;-75
2021/03/03 02:04:37;;;;;;;38.93;21.33;;;9.50;99.90;;;;;;5073078;28;20222;-75
2021/03/03 02:07:09;;;;;;;42.13;21.23;;;9.50;99.90;;;;;;5073033;28;20205;-75
2021/03/03 02:09:49;;;;;;;45.23;22.00;;;9.40;99.90;;;;;;5072818;28;20223;-75
2021/03/03 02:12:22;;;;;;;46.90;23.47;;;9.50;99.90;;;;;;5073129;28;20208;-75
2021/03/03 02:14:54;;;;;;;45.77;22.40;;;9.40;99.90;;;;;;5072893;28;20213;-75
2021/03/03 02:17:23;;;;;;;48.67;22.27;;;9.40;99.90;;;;;;5072779;28;20207;-75
2021/03/03 02:19:50;;;;;;;45.97;23.23;;;9.30;99.90;;;;;;5072686;28;20208;-75
2021/03/03 02:22:21;;;;;;;50.73;22.20;;;9.30;99.90;;;;;;5072841;28;20200;-75
2021/03/03 02:24:51;;;;;;;51.27;23.37;;;9.20;99.90;;;;;;5072810;28;20213;-75
2021/03/03 02:27:21;;;;;;;47.60;22.67;;;9.20;99.90;;;;;;5072776;28;20283;-75
2021/03/03 02:29:49;;;;;;;51.33;23.00;;;9.10;99.90;;;;;;5074918;28;20231;-75
2021/03/03 02:32:18;;;;;;;48.13;22.67;;;9.00;99.90;;;;;;5076574;28;20246;-75
2021/03/03 02:34:46;;;;;;;43.87;23.47;;;9.00;99.90;;;;;;5076370;28;20209;-75
2021/03/03 02:37:13;;;;;;;50.13;23.43;;;9.00;99.90;;;;;;5076566;28;20257;-75
2021/03/03 02:39:40;;;;;;;59.33;23.90;;;9.00;99.90;;;;;;5076373;28;20209;-75
2021/03/03 02:42:08;;;;;;;50.20;23.60;;;9.00;99.90;;;;;;5076311;28;20585;-75
2021/03/03 02:44:38;;;;;;;49.80;22.30;;;9.10;99.90;;;;;;5076328;28;20209;-75
2021/03/03 02:47:05;;;;;;;48.87;22.77;;;9.20;99.90;;;;;;5076219;28;20689;-75
2021/03/03 02:49:32;;;;;;;48.37;23.63;;;9.10;99.90;;;;;;5075781;28;20782;-75
2021/03/03 02:51:59;;;;;;;49.80;23.03;;;9.00;99.90;;;;;;5076130;28;20200;-75
2021/03/03 02:54:25;;;;;;;50.33;22.93;;;9.10;99.90;;;;;;5076183;28;20203;-75
2021/03/03 02:56:52;;;;;;;52.23;22.90;;;9.10;99.90;;;;;;5075988;28;20208;-75
2021/03/03 02:59:26;;;;;;;45.83;23.53;;;9.10;99.90;;;;;;5075919;28;20249;-75
2021/03/03 03:01:55;;;;;;;51.33;25.37;;;9.10;99.90;;;;;;5075808;28;20290;-75
2021/03/03 03:04:25;;;;;;;42.90;22.07;;;9.10;99.90;;;;;;5075680;28;20214;-75
2021/03/03 03:06:54;;;;;;;51.17;24.87;;;9.10;99.90;;;;;;5075716;28;20694;-75
2021/03/03 03:09:20;;;;;;;48.03;23.40;;;9.10;99.90;;;;;;5075898;28;20225;-75
2021/03/03 03:11:51;;;;;;;49.67;23.83;;;9.20;99.90;;;;;;5075934;28;20301;-75
2021/03/03 03:14:20;;;;;;;50.63;22.10;;;9.20;99.90;;;;;;5075552;28;20203;-75
2021/03/03 03:16:49;;;;;;;44.47;23.67;;;9.10;99.90;;;;;;5075637;28;20206;-75
2021/03/03 03:19:21;;;;;;;49.13;24.47;;;9.10;99.90;;;;;;5075940;28;20198;-75
2021/03/03 03:21:50;;;;;;;51.13;23.70;;;9.10;99.90;;;;;;5075731;28;20202;-75
2021/03/03 03:24:18;;;;;;;45.23;22.87;;;9.10;99.90;;;;;;5075348;28;20202;-75
2021/03/03 03:26:47;;;;;;;47.53;23.53;;;9.10;99.90;;;;;;5075360;28;20654;-75
2021/03/03 03:29:15;;;;;;;49.40;24.10;;;9.00;99.90;;;;;;5075265;28;20304;-75
2021/03/03 03:31:42;;;;;;;42.80;23.80;;;9.10;99.90;;;;;;5075671;28;20262;-76
2021/03/03 03:34:11;;;;;;;54.27;24.20;;;9.10;99.90;;;;;;5075375;28;20206;-75
2021/03/03 03:36:39;;;;;;;51.67;23.70;;;9.10;99.90;;;;;;5075226;28;20201;-75
2021/03/03 03:39:09;;;;;;;45.73;23.67;;;9.10;99.90;;;;;;5075087;28;20251;-75
2021/03/03 03:41:36;;;;;;;55.07;24.63;;;9.10;99.90;;;;;;5074064;28;20201;-75
2021/03/03 03:44:04;;;;;;;48.37;23.90;;;9.10;99.90;;;;;;5074905;28;20617;-75
2021/03/03 03:46:32;;;;;;;53.03;24.57;;;9.10;99.90;;;;;;5075342;28;20198;-75
2021/03/03 03:48:59;;;;;;;51.10;25.10;;;9.10;99.90;;;;;;5074926;28;20271;-75
2021/03/03 03:51:26;;;;;;;49.03;23.67;;;9.20;99.90;;;;;;5074905;28;20201;-75
2021/03/03 03:53:54;;;;;;;50.50;25.50;;;9.30;99.90;;;;;;5074777;28;20204;-75
2021/03/03 03:56:20;;;;;;;49.80;25.33;;;9.40;99.90;;;;;;5074750;28;20203;-75
2021/03/03 03:58:46;;;;;;;53.90;26.13;;;9.50;99.90;;;;;;5075026;28;20204;-75
2021/03/03 04:01:13;;;;;;;53.57;24.73;;;9.50;99.90;;;;;;5075019;28;20206;-75
2021/03/03 04:03:39;;;;;;;52.17;24.53;;;9.50;99.90;;;;;;5074575;28;20664;-75
2021/03/03 04:06:06;;;;;;;51.83;24.53;;;9.60;99.90;;;;;;5074993;28;20297;-76
2021/03/03 04:08:32;;;;;;;58.03;25.57;;;9.60;99.90;;;;;;5074366;28;20686;-75
2021/03/03 04:10:59;;;;;;;57.23;23.83;;;9.70;99.90;;;;;;5074921;28;20201;-75
2021/03/03 04:13:26;;;;;;;48.23;24.80;;;9.80;99.90;;;;;;5074568;28;20206;-75
2021/03/03 04:15:52;;;;;;;53.23;25.10;;;9.70;99.90;;;;;;5074456;28;20586;-75
2021/03/03 04:18:18;;;;;;;55.40;26.50;;;9.90;99.90;;;;;;5074350;28;20192;-75
2021/03/03 04:20:45;;;;;;;56.27;27.50;;;10.00;99.90;;;;;;5074433;28;20217;-75
2021/03/03 04:23:11;;;;;;;55.83;27.17;;;10.00;99.90;;;;;;5074096;28;20218;-75
2021/03/03 04:25:38;;;;;;;58.20;26.63;;;10.10;99.90;;;;;;5074385;28;20199;-75
2021/03/03 04:28:06;;;;;;;58.33;26.83;;;10.20;99.90;;;;;;5074192;28;20291;-75
2021/03/03 04:30:33;;;;;;;57.40;25.03;;;10.20;99.90;;;;;;5074503;28;20208;-75
2021/03/03 04:32:59;;;;;;;51.00;25.67;;;10.30;99.90;;;;;;5074234;28;20208;-76
2021/03/03 04:35:26;;;;;;;54.23;24.47;;;10.30;99.90;;;;;;5074024;28;20198;-75
2021/03/03 04:37:53;;;;;;;47.67;24.57;;;10.30;99.90;;;;;;5073827;28;20585;-75
2021/03/03 04:40:19;;;;;;;56.37;24.73;;;10.30;99.90;;;;;;5074095;28;20298;-75
2021/03/03 04:42:45;;;;;;;43.27;23.40;;;10.30;99.90;;;;;;5074020;28;20206;-75
2021/03/03 04:45:13;;;;;;;45.80;22.93;;;10.40;99.90;;;;;;5073862;28;20299;-75
2021/03/03 04:47:40;;;;;;;49.70;24.33;;;10.40;99.90;;;;;;5073775;28;20686;-75
2021/03/03 04:50:08;;;;;;;51.47;23.77;;;10.50;99.90;;;;;;5073608;28;20637;-75
2021/03/03 04:52:34;;;;;;;46.73;23.40;;;10.50;99.90;;;;;;5073529;28;20218;-75
2021/03/03 04:55:01;;;;;;;45.53;24.47;;;10.60;99.90;;;;;;5073928;28;20202;-74
2021/03/03 04:57:27;;;;;;;44.17;23.20;;;10.60;99.90;;;;;;5073728;28;20206;-74
2021/03/03 04:59:54;;;;;;;49.83;25.07;;;10.60;99.90;;;;;;5073753;28;20198;-74
2021/03/03 05:02:21;;;;;;;49.40;24.87;;;10.70;99.90;;;;;;5073576;28;20231;-74
2021/03/03 05:04:47;;;;;;;51.70;24.87;;;10.60;99.90;;;;;;5073446;28;20210;-75
2021/03/03 05:07:14;;;;;;;52.47;26.27;;;10.70;99.90;;;;;;5073805;28;20215;-74
2021/03/03 05:09:40;;;;;;;42.87;24.27;;;10.70;99.90;;;;;;5073433;28;20227;-75
2021/03/03 05:12:07;;;;;;;52.17;24.13;;;10.60;99.90;;;;;;5073814;28;20202;-75
2021/03/03 05:14:34;;;;;;;47.93;24.13;;;10.60;99.90;;;;;;5073505;28;20210;-75
2021/03/03 05:17:00;;;;;;;47.40;23.80;;;10.50;99.90;;;;;;5073563;28;20205;-75
2021/03/03 05:19:27;;;;;;;46.40;24.23;;;10.50;99.90;;;;;;5073394;28;20205;-75
2021/03/03 05:21:53;;;;;;;53.70;29.00;;;10.60;99.90;;;;;;5071225;28;20464;-74
2021/03/03 05:24:20;;;;;;;48.17;24.77;;;10.40;99.90;;;;;;5066794;28;20288;-75
2021/03/03 05:26:46;;;;;;;53.43;24.70;;;10.50;99.90;;;;;;5073399;28;20203;-75
2021/03/03 05:29:13;;;;;;;57.47;24.63;;;10.40;99.90;;;;;;5072066;28;20221;-74
2021/03/03 05:31:39;;;;;;;48.57;24.43;;;10.40;99.90;;;;;;5073232;28;20281;-75
2021/03/03 05:34:05;;;;;;;48.17;25.27;;;10.30;99.90;;;;;;5073146;28;20213;-75
2021/03/03 05:36:33;;;;;;;49.60;24.27;;;10.20;99.90;;;;;;5072710;28;20620;-75
2021/03/03 05:38:59;;;;;;;57.80;25.63;;;10.10;99.90;;;;;;5070232;28;20259;-75
2021/03/03 05:41:26;;;;;;;45.30;23.87;;;10.00;99.90;;;;;;5072832;28;20202;-75
2021/03/03 05:43:53;;;;;;;56.37;25.50;;;9.90;99.90;;;;;;5073053;28;20582;-74
2021/03/03 05:46:20;;;;;;;58.67;25.93;;;9.80;99.90;;;;;;5072702;28;20297;-75
2021/03/03 05:48:50;;;;;;;57.57;25.03;;;9.70;99.90;;;;;;5072003;28;20257;-75
2021/03/03 05:51:17;;;;;;;55.20;26.53;;;9.60;99.90;;;;;;5062334;28;20192;-75
2021/03/03 05:53:44;;;;;;;57.93;25.00;;;9.60;99.90;;;;;;5072091;28;20205;-75
2021/03/03 05:56:11;;;;;;;51.43;25.50;;;9.50;99.90;;;;;;5072187;28;20232;-74
2021/03/03 05:58:40;;;;;;;59.60;24.73;;;9.50;99.90;;;;;;5072185;28;20242;-75
2021/03/03 06:01:08;;;;;;;51.67;25.00;;;9.30;99.90;;;;;;5071909;28;20210;-74
2021/03/03 06:03:35;;;;;;;52.23;25.33;;;9.20;99.90;;;;;;5073018;28;20207;-75
2021/03/03 06:06:01;;;;;;;51.17;25.63;;;9.20;99.90;;;;;;5085041;28;20203;-75
2021/03/03 06:08:30;;;;;;;58.90;25.53;;;9.00;99.90;;;;;;5096834;28;20341;-75
2021/03/03 06:10:59;;;;;;;58.33;25.13;;;8.90;99.90;;;;;;5092841;28;20202;-75
2021/03/03 06:13:25;;;;;;;60.00;26.47;;;8.90;99.90;;;;;;5074026;28;20209;-74
2021/03/03 06:15:52;;;;;;;47.37;24.73;;;8.90;99.90;;;;;;5075370;28;20211;-75
2021/03/03 06:18:21;;;;;;;60.27;26.30;;;8.90;99.90;;;;;;5073267;28;20209;-74
2021/03/03 06:20:50;;;;;;;55.27;24.97;;;8.80;99.90;;;;;;5075869;28;20210;-74
2021/03/03 06:23:18;;;;;;;51.17;25.43;;;8.80;99.90;;;;;;5075327;28;20209;-75
2021/03/03 06:25:46;;;;;;;59.17;27.60;;;8.70;99.90;;;;;;5076073;28;20213;-74
2021/03/03 06:28:31;;;;;;;60.37;25.97;;;8.70;99.90;;;;;;5077009;28;20691;-76
2021/03/03 06:30:58;;;;;;;52.30;26.63;;;8.60;99.90;;;;;;5096609;28;20253;-74
2021/03/03 06:33:25;;;;;;;56.07;27.00;;;8.60;99.90;;;;;;5096557;28;20188;-75
2021/03/03 06:35:52;;;;;;;62.00;26.43;;;8.70;99.90;;;;;;5095879;28;20211;-75
2021/03/03 06:38:30;;;;;;;51.50;26.57;;;8.70;99.90;;;;;;5096120;28;20205;-75
2021/03/03 06:40:58;;;;;;;58.47;26.40;;;8.80;99.90;;;;;;5096239;28;20192;-74
2021/03/03 06:43:27;;;;;;;52.73;26.63;;;8.80;99.90;;;;;;5077009;28;20213;-75
2021/03/03 06:45:53;;;;;;;56.83;25.87;;;8.80;99.90;;;;;;5076232;28;20203;-75
2021/03/03 06:48:38;;;;;;;53.03;25.97;;;9.00;99.90;;;;;;5075534;28;20209;-74
2021/03/03 06:51:25;;;;;;;51.60;25.40;;;9.10;99.90;;;;;;5076400;28;20198;-75
2021/03/03 06:53:52;;;;;;;58.03;25.30;;;9.20;99.90;;;;;;5075871;28;20202;-75
2021/03/03 06:56:35;;;;;;;58.60;26.17;;;9.30;99.90;;;;;;5074247;28;20573;-74
2021/03/03 06:59:11;;;;;;;54.90;25.80;;;9.30;99.90;;;;;;5070004;28;20919;-75
2021/03/03 07:01:38;;;;;;;53.37;27.03;;;9.30;99.90;;;;;;5070050;28;20274;-75
2021/03/03 07:04:04;;;;;;;54.00;26.73;;;9.30;99.90;;;;;;5072675;28;20205;-75
2021/03/03 07:06:32;;;;;;;55.77;25.27;;;9.30;99.90;;;;;;5055659;28;20279;-74
2021/03/03 07:08:59;;;;;;;55.30;25.87;;;9.40;99.90;;;;;;5071670;28;20224;-80
2021/03/03 07:11:29;;;;;;;45.67;24.77;;;9.40;99.90;;;;;;5075600;28;20336;-75
2021/03/03 07:13:55;;;;;;;49.37;25.27;;;9.40;99.90;;;;;;5075122;28;20658;-74
2021/03/03 07:16:23;;;;;;;65.20;26.33;;;9.50;99.90;;;;;;5074303;28;20205;-75
2021/03/03 07:18:49;;;;;;;62.43;25.83;;;9.60;99.90;;;;;;5075058;28;20222;-75
2021/03/03 07:21:35;;;;;;;53.67;25.13;;;9.60;99.90;;;;;;5075323;28;20201;-75
2021/03/03 07:24:03;;;;;;;53.47;24.93;;;9.70;99.90;;;;;;5075300;28;20209;-75
2021/03/03 07:26:30;;;;;;;48.00;25.43;;;9.80;99.90;;;;;;5075234;28;20202;-75
2021/03/03 07:28:57;;;;;;;47.20;24.97;;;9.90;99.90;;;;;;5074934;28;20221;-75
2021/03/03 07:31:24;;;;;;;52.63;24.83;;;10.00;99.90;;;;;;5075220;28;20203;-74
2021/03/03 07:33:51;;;;;;;53.57;25.63;;;10.00;99.90;;;;;;5075101;28;20196;-75
2021/03/03 07:36:18;;;;;;;50.07;24.57;;;10.10;99.90;;;;;;5075284;28;20241;-75
2021/03/03 07:38:49;;;;;;;50.50;24.07;;;10.20;99.90;;;;;;5074944;28;20203;-74
2021/03/03 07:41:16;;;;;;;50.87;23.83;;;10.30;99.90;;;;;;5074201;28;20234;-74
2021/03/03 07:43:46;;;;;;;46.30;24.03;;;10.40;99.90;;;;;;5075232;28;20626;-74
2021/03/03 07:46:13;;;;;;;58.70;25.60;;;10.50;99.90;;;;;;5072130;28;20203;-74
2021/03/03 07:48:42;;;;;;;56.67;24.50;;;10.60;99.90;;;;;;5073368;28;20267;-74
2021/03/03 07:51:09;;;;;;;47.70;24.67;;;10.70;99.90;;;;;;5074560;28;20705;-74
2021/03/03 07:53:39;;;;;;;51.57;24.47;;;10.80;99.90;;;;;;5074774;28;20198;-74
2021/03/03 07:56:08;;;;;;;50.20;25.17;;;10.80;99.90;;;;;;5074922;28;20206;-74
2021/03/03 07:58:35;;;;;;;48.23;23.83;;;11.00;99.90;;;;;;5074548;28;20655;-74
2021/03/03 08:01:02;;;;;;;49.43;25.03;;;11.10;99.90;;;;;;5074703;28;20240;-74
2021/03/03 08:03:43;;;;;;;55.33;24.40;;;11.20;99.90;;;;;;5074551;28;20295;-74
2021/03/03 08:06:28;;;;;;;50.47;23.10;;;11.30;99.90;;;;;;5074065;28;20207;-74
2021/03/03 08:09:13;;;;;;;46.13;23.87;;;11.30;99.90;;;;;;5074455;28;20230;-75
2021/03/03 08:11:40;;;;;;;48.73;22.50;;;11.50;99.90;;;;;;5074435;28;20274;-74
2021/03/03 08:14:33;;;;;;;53.23;23.67;;;11.60;99.90;;;;;;5074127;28;20214;-74
2021/03/03 08:17:00;;;;;;;49.77;24.40;;;11.70;99.90;;;;;;5071164;28;20194;-74
2021/03/03 08:19:59;;;;;;;49.17;23.67;;;11.90;99.90;;;;;;5074559;28;20204;-74
2021/03/03 08:22:49;;;;;;;57.80;23.67;;;12.00;99.90;;;;;;5068529;28;20205;-75
2021/03/03 08:25:46;;;;;;;56.05;27.65;;;12.10;99.90;;;;;;5073582;28;20448;-75
2021/03/03 08:28:37;;;;;;;46.47;23.40;;;12.30;99.90;;;;;;5067508;28;20201;-74
2021/03/03 08:31:32;;;;;;;45.13;21.33;;;12.50;99.90;;;;;;5058387;28;20286;-74
2021/03/03 08:34:01;;;;;;;50.20;22.03;;;12.60;99.90;;;;;;5073657;28;20202;-74
2021/03/03 08:36:48;;;;;;;46.10;22.10;;;12.70;99.90;;;;;;5073680;28;20218;-75
2021/03/03 08:39:35;;;;;;;46.67;21.57;;;12.90;99.90;;;;;;5073758;28;20195;-75
2021/03/03 08:42:03;;;;;;;44.47;21.00;;;12.90;99.90;;;;;;5073933;28;20187;-75
2021/03/03 08:44:31;;;;;;;55.13;22.57;;;12.90;99.90;;;;;;5073647;28;20610;-75
2021/03/03 08:46:57;;;;;;;41.97;22.67;;;13.10;99.90;;;;;;5073210;28;20231;-75
2021/03/03 08:49:31;;;;;;;47.10;21.97;;;13.20;99.90;;;;;;5073207;28;20227;-75
2021/03/03 08:52:14;;;;;;;48.83;22.17;;;13.20;99.90;;;;;;5073434;28;20200;-75
2021/03/03 08:54:46;;;;;;;43.03;21.83;;;13.30;99.90;;;;;;5073600;28;20184;-75
2021/03/03 08:57:32;;;;;;;44.43;21.70;;;13.40;99.90;;;;;;5073385;28;20353;-75
2021/03/03 08:59:59;;;;;;;45.17;21.07;;;13.40;99.90;;;;;;5073502;28;20200;-75
2021/03/03 09:02:37;;;;;;;61.40;24.63;;;13.50;99.90;;;;;;5073116;28;20213;-75
2021/03/03 09:05:11;;;;;;;44.90;22.27;;;13.60;99.90;;;;;;5073520;28;20197;-74
2021/03/03 09:07:39;;;;;;;45.00;22.37;;;13.60;99.90;;;;;;5073197;28;20644;-75
2021/03/03 09:10:08;;;;;;;45.90;22.90;;;13.70;99.90;;;;;;5071967;28;20679;-75
2021/03/03 09:12:39;;;;;;;48.57;22.37;;;13.90;99.90;;;;;;5073081;28;20202;-75
2021/03/03 09:15:07;;;;;;;47.07;23.10;;;13.90;99.90;;;;;;5073109;28;20298;-74
2021/03/03 09:17:36;;;;;;;44.87;22.37;;;13.90;99.90;;;;;;5073293;28;20651;-75
2021/03/03 09:20:05;;;;;;;47.53;22.87;;;14.00;99.90;;;;;;5073009;28;20199;-74
2021/03/03 09:22:35;;;;;;;41.67;22.40;;;14.10;99.90;;;;;;5073582;28;20720;-74
2021/03/03 09:25:11;;;;;;;44.60;23.13;;;14.10;99.90;;;;;;5073233;28;20184;-74
2021/03/03 09:27:38;;;;;;;51.20;23.13;;;14.20;99.90;;;;;;5072226;28;20199;-75
2021/03/03 09:30:06;;;;;;;50.53;24.83;;;14.30;99.90;;;;;;5073065;28;20556;-75
2021/03/03 09:32:32;;;;;;;45.27;23.20;;;14.50;99.90;;;;;;5073189;28;20207;-75
2021/03/03 09:35:02;;;;;;;49.80;23.17;;;14.60;99.90;;;;;;5073123;28;20567;-74
2021/03/03 09:37:36;;;;;;;51.07;23.33;;;14.70;99.90;;;;;;5072879;28;20608;-75
2021/03/03 09:40:03;;;;;;;51.80;23.40;;;14.90;99.90;;;;;;5071400;28;20202;-75
2021/03/03 09:42:37;;;;;;;45.10;22.20;;;15.00;99.90;;;;;;5073058;28;20286;-74
2021/03/03 09:45:05;;;;;;;45.67;23.10;;;14.90;99.90;;;;;;5072990;28;20571;-74
2021/03/03 09:47:33;;;;;;;43.93;21.83;;;15.00;99.90;;;;;;5072193;28;20203;-74
2021/03/03 09:50:00;;;;;;;45.33;21.50;;;14.90;99.90;;;;;;5072937;28;20219;-75
2021/03/03 09:52:33;;;;;;;45.70;21.90;;;15.00;99.90;;;;;;5072826;28;20196;-75
2021/03/03 09:54:59;;;;;;;41.37;20.67;;;15.10;99.90;;;;;;5072699;28;20662;-75
2021/03/03 09:57:26;;;;;;;44.63;20.90;;;15.20;99.90;;;;;;5072685;28;20571;-75
2021/03/03 09:59:56;;;;;;;42.37;21.70;;;15.30;99.90;;;;;;5072868;28;20204;-75
2021/03/03 10:02:25;;;;;;;42.40;21.50;;;15.50;99.90;;;;;;5072956;28;20199;-75
2021/03/03 10:04:52;;;;;;;46.73;21.77;;;15.70;99.90;;;;;;5073067;28;20211;-74
2021/03/03 10:07:21;;;;;;;51.33;22.13;;;15.80;99.90;;;;;;5072039;28;20199;-75
2021/03/03 10:09:51;;;;;;;42.23;21.30;;;15.80;99.90;;;;;;5072784;28;20281;-75
2021/03/03 10:12:19;;;;;;;47.27;21.37;;;15.90;99.90;;;;;;5072492;28;20203;-74
2021/03/03 10:14:58;;;;;;;46.80;21.50;;;15.90;99.90;;;;;;5072089;28;20218;-75
2021/03/03 10:17:33;;;;;;;52.43;21.33;;;16.10;99.90;;;;;;5072683;28;20233;-75
2021/03/03 10:20:00;;;;;;;39.53;20.33;;;16.30;99.90;;;;;;5072195;28;20203;-74
2021/03/03 10:22:27;;;;;;;44.50;20.47;;;16.40;99.90;;;;;;5072429;28;20203;-75
2021/03/03 10:24:57;;;;;;;40.93;19.60;;;16.50;99.90;;;;;;5071170;28;20217;-75
2021/03/03 10:27:24;;;;;;;44.53;20.33;;;17.10;99.90;;;;;;5071901;28;20286;-75
2021/03/03 10:29:51;;;;;;;40.07;21.10;;;18.10;99.90;;;;;;5072079;28;20306;-75
2021/03/03 10:32:18;;;;;;;40.67;21.53;;;19.10;99.90;;;;;;5071662;28;20195;-75
2021/03/03 10:34:45;;;;;;;42.73;21.10;;;19.70;99.90;;;;;;5072512;28;20295;-75
2021/03/03 10:37:23;;;;;;;43.37;21.30;;;20.20;99.90;;;;;;5072107;28;20556;-75
2021/03/03 10:39:50;;;;;;;43.00;22.60;;;20.80;99.90;;;;;;5072228;28;20204;-75
2021/03/03 10:42:21;;;;;;;48.73;21.63;;;20.70;99.90;;;;;;5072598;28;20210;-75
2021/03/03 10:44:52;;;;;;;47.53;22.30;;;20.80;99.90;;;;;;5072207;28;20211;-75
2021/03/03 10:47:39;;;;;;;53.57;23.37;;;20.70;99.90;;;;;;5071983;28;20191;-75
2021/03/03 10:50:07;;;;;;;42.00;22.80;;;20.50;99.90;;;;;;5073066;28;20212;-75
2021/03/03 10:52:33;;;;;;;47.20;22.73;;;20.40;99.90;;;;;;5075911;28;20690;-74
2021/03/03 10:55:00;;;;;;;39.80;22.23;;;20.10;99.90;;;;;;5075894;28;20199;-75
2021/03/03 10:57:26;;;;;;;42.17;21.93;;;20.10;99.90;;;;;;5075498;28;20200;-75
2021/03/03 11:00:02;;;;;;;42.03;22.30;;;19.90;99.90;;;;;;5075783;28;20195;-75
2021/03/03 11:02:29;;;;;;;55.80;23.37;;;19.80;99.90;;;;;;5075303;28;20661;-75
2021/03/03 11:04:56;;;;;;;39.87;22.03;;;19.80;99.90;;;;;;5076708;28;20223;-75
2021/03/03 11:07:22;;;;;;;51.57;23.10;;;19.80;99.90;;;;;;5075789;28;20227;-74
2021/03/03 11:09:50;;;;;;;47.90;22.20;;;19.50;99.90;;;;;;5076965;28;20714;-75
2021/03/03 11:12:22;;;;;;;39.70;22.17;;;19.20;99.90;;;;;;5076808;28;20196;-75
2021/03/03 11:14:48;;;;;;;40.47;22.33;;;18.80;99.90;;;;;;5075237;28;20207;-75
2021/03/03 11:17:14;;;;;;;41.50;22.67;;;18.60;99.90;;;;;;5075300;28;20203;-75
2021/03/03 11:19:41;;;;;;;47.73;22.30;;;18.40;99.90;;;;;;5075605;28;20195;-75
2021/03/03 11:22:08;;;;;;;40.83;22.63;;;18.80;99.90;;;;;;5074987;28;20203;-75
2021/03/03 11:24:34;;;;;;;42.80;21.60;;;19.30;99.90;;;;;;5075758;28;20241;-75
2021/03/03 11:27:01;;;;;;;41.13;21.20;;;19.90;99.90;;;;;;5075010;28;20227;-75
2021/03/03 11:29:27;;;;;;;43.23;22.20;;;20.30;99.90;;;;;;5075160;28;20226;-75
2021/03/03 11:31:53;;;;;;;43.13;21.33;;;20.50;99.90;;;;;;5071450;28;20204;-75
2021/03/03 11:34:20;;;;;;;43.33;23.17;;;20.70;99.90;;;;;;5076134;28;20249;-74
2021/03/03 11:36:47;;;;;;;37.43;21.20;;;20.70;99.90;;;;;;5075077;28;20207;-75
2021/03/03 11:39:13;;;;;;;42.97;21.67;;;20.90;99.90;;;;;;5076607;28;20203;-75
2021/03/03 11:41:40;;;;;;;39.60;21.90;;;21.10;99.90;;;;;;5076649;28;20195;-75
2021/03/03 11:44:07;;;;;;;43.17;21.93;;;21.20;99.90;;;;;;5073944;28;20211;-75
2021/03/03 11:46:34;;;;;;;44.10;21.73;;;21.50;99.90;;;;;;5077689;28;20597;-75
2021/03/03 11:49:01;;;;;;;43.73;21.00;;;21.50;99.90;;;;;;5083151;28;20626;-75
2021/03/03 11:51:27;;;;;;;38.73;20.07;;;21.40;99.90;;;;;;5078815;28;20206;-81
2021/03/03 11:53:54;;;;;;;42.03;19.80;;;21.30;99.90;;;;;;5077989;28;20607;-78
2021/03/03 11:56:20;;;;;;;41.47;19.10;;;21.00;99.90;;;;;;5083271;28;20195;-78
2021/03/03 11:58:47;;;;;;;34.87;19.40;;;20.90;99.90;;;;;;5084021;28;20207;-78
2021/03/03 12:01:13;;;;;;;37.67;19.20;;;20.90;99.90;;;;;;5083203;28;20199;-77
2021/03/03 12:03:40;;;;;;;34.63;18.10;;;20.80;99.90;;;;;;5084669;28;20191;-78
2021/03/03 12:06:06;;;;;;;41.87;17.83;;;20.80;99.90;;;;;;5083253;28;20256;-77
2021/03/03 12:08:32;;;;;;;43.83;18.00;;;20.60;99.90;;;;;;5083072;28;20595;-77
2021/03/03 12:11:00;;;;;;;33.13;16.27;;;20.40;99.90;;;;;;5085060;28;20225;-78
2021/03/03 12:13:26;;;;;;;33.47;16.37;;;20.20;99.90;;;;;;5083628;28;20699;-77
2021/03/03 12:15:52;;;;;;;33.37;16.90;;;20.10;99.90;;;;;;5083131;28;20649;-78
2021/03/03 12:18:19;;;;;;;33.03;17.67;;;19.90;99.90;;;;;;5085013;28;20191;-77
2021/03/03 12:20:45;;;;;;;39.00;16.83;;;19.90;99.90;;;;;;5083020;28;20191;-78
2021/03/03 12:23:11;;;;;;;39.33;18.00;;;20.00;99.90;;;;;;5083271;28;20201;-78
2021/03/03 12:25:38;;;;;;;28.03;15.60;;;19.90;99.90;;;;;;5084929;28;20552;-77
2021/03/03 12:28:05;;;;;;;41.43;17.10;;;19.90;99.90;;;;;;5083181;28;20202;-78
2021/03/03 12:30:32;;;;;;;36.20;13.97;;;19.70;99.90;;;;;;5083139;28;20309;-78
2021/03/03 12:32:58;;;;;;;38.60;13.80;;;19.70;99.90;;;;;;5084714;28;20194;-78
2021/03/03 12:35:25;;;;;;;36.77;12.27;;;19.70;99.90;;;;;;5082939;28;20192;-78
2021/03/03 12:37:51;;;;;;;26.20;11.83;;;19.70;99.90;;;;;;5083114;28;20625;-77
2021/03/03 12:40:18;;;;;;;24.77;11.50;;;19.60;99.90;;;;;;5084432;28;20340;-78